createdAt,value
2023-06-10T00:01:41.643Z,101639.75
2023-06-10T00:04:08.454Z,101634.75
2023-06-10T00:06:36.784Z,101638.47
2023-06-10T00:09:06.993Z,101636.81
2023-06-10T00:11:33.669Z,101636.91
2023-06-10T00:14:01.104Z,101640.53
2023-06-10T00:16:27.790Z,101650.19
2023-06-10T00:18:56.673Z,101645.19
2023-06-10T00:21:23.444Z,101645.34
2023-06-10T00:23:50.720Z,101645.34
2023-06-10T00:26:17.418Z,101649.16
2023-06-10T00:28:45.938Z,101646.66
2023-06-10T00:31:12.499Z,101649.38
2023-06-10T00:33:38.926Z,101645.34
2023-06-10T00:36:05.649Z,101650.75
2023-06-10T00:38:32.945Z,101653.53
2023-06-10T00:40:59.765Z,101657.06
2023-06-10T00:43:26.300Z,101654.66
2023-06-10T00:45:53.233Z,101655.78
2023-06-10T00:48:20.715Z,101660.19
2023-06-10T00:50:48.305Z,101661.19
2023-06-10T00:53:14.960Z,101657.00
2023-06-10T00:55:42.279Z,101660.53
2023-06-10T00:58:09.345Z,101658.94
2023-06-10T01:00:36.428Z,101661.75
2023-06-10T01:03:08.727Z,101653.28
2023-06-10T01:05:37.400Z,101656.06
2023-06-10T01:08:30.409Z,101661.47
2023-06-10T01:11:02.646Z,101656.41
2023-06-10T01:13:30.314Z,101652.16
2023-06-10T01:15:57.897Z,101662.56
2023-06-10T01:18:24.675Z,101657.44
2023-06-10T01:20:53.224Z,101658.63
2023-06-10T01:23:19.698Z,101664.84
2023-06-10T01:26:05.296Z,101672.75
2023-06-10T01:28:58.411Z,101671.06
2023-06-10T01:31:37.579Z,101674.66
2023-06-10T01:34:14.874Z,101677.47
2023-06-10T01:36:45.073Z,101670.66
2023-06-10T01:39:12.376Z,101669.91
2023-06-10T01:41:39.448Z,101666.56
2023-06-10T01:44:05.947Z,101666.72
2023-06-10T01:46:32.576Z,101666.91
2023-06-10T01:48:59.271Z,101669.69
2023-06-10T01:51:25.866Z,101674.97
2023-06-10T01:53:52.302Z,101668.28
2023-06-10T01:56:20.758Z,101664.09
2023-06-10T01:58:47.851Z,101668.44
2023-06-10T02:01:14.865Z,101670.34
2023-06-10T02:03:42.054Z,101669.72
2023-06-10T02:06:08.725Z,101673.41
2023-06-10T02:08:35.736Z,101679.53
2023-06-10T02:11:02.477Z,101677.03
2023-06-10T02:13:28.979Z,101671.06
2023-06-10T02:15:55.491Z,101667.75
2023-06-10T02:18:22.864Z,101669.53
2023-06-10T02:20:49.795Z,101680.09
2023-06-10T02:23:16.288Z,101677.91
2023-06-10T02:25:42.770Z,101680.66
2023-06-10T02:28:09.524Z,101685.13
2023-06-10T02:30:36.619Z,101688.03
2023-06-10T02:33:03.160Z,101684.69
2023-06-10T02:35:29.731Z,101689.13
2023-06-10T02:37:56.330Z,101691.00
2023-06-10T02:40:23.047Z,101696.31
2023-06-10T02:42:50.525Z,101687.09
2023-06-10T02:45:17.828Z,101689.03
2023-06-10T02:47:44.490Z,101694.41
2023-06-10T02:50:13.945Z,101695.38
2023-06-10T02:52:40.424Z,101692.03
2023-06-10T02:55:07.865Z,101688.81
2023-06-10T02:57:34.550Z,101686.31
2023-06-10T03:00:01.280Z,101695.03
2023-06-10T03:02:29.585Z,101690.84
2023-06-10T03:04:56.878Z,101696.09
2023-06-10T03:07:24.118Z,101692.91
2023-06-10T03:09:51.524Z,101690.56
2023-06-10T03:12:18.055Z,101690.66
2023-06-10T03:14:44.557Z,101687.38
2023-06-10T03:17:11.017Z,101694.47
2023-06-10T03:19:38.992Z,101692.94
2023-06-10T03:22:13.746Z,101697.41
2023-06-10T03:24:41.487Z,101700.06
2023-06-10T03:27:09.149Z,101698.47
2023-06-10T03:29:35.862Z,101698.50
2023-06-10T03:32:02.950Z,101706.44
2023-06-10T03:34:29.450Z,101700.56
2023-06-10T03:36:55.883Z,101698.81
2023-06-10T03:39:22.478Z,101702.25
2023-06-10T03:41:49.089Z,101710.84
2023-06-10T03:44:16.057Z,101710.84
2023-06-10T03:46:42.696Z,101705.84
2023-06-10T03:49:10.547Z,101714.59
2023-06-10T03:51:37.870Z,101712.91
2023-06-10T03:54:04.387Z,101705.38
2023-06-10T03:56:30.881Z,101713.25
2023-06-10T03:58:57.312Z,101705.47
2023-06-10T04:01:24.644Z,101708.88
2023-06-10T04:03:52.468Z,101707.97
2023-06-10T04:06:18.956Z,101720.03
2023-06-10T04:08:45.973Z,101721.69
2023-06-10T04:11:12.624Z,101715.69
2023-06-10T04:13:39.143Z,101723.47
2023-06-10T04:16:06.145Z,101715.59
2023-06-10T04:18:32.590Z,101725.06
2023-06-10T04:20:59.243Z,101719.09
2023-06-10T04:23:25.804Z,101721.69
2023-06-10T04:25:52.271Z,101723.31
2023-06-10T04:28:18.717Z,101721.69
2023-06-10T04:30:47.017Z,101723.38
2023-06-10T04:33:13.588Z,101733.75
2023-06-10T04:35:40.294Z,101731.78
2023-06-10T04:38:06.946Z,101736.81
2023-06-10T04:40:33.663Z,101733.16
2023-06-10T04:43:00.071Z,101741.66
2023-06-10T04:45:31.492Z,101737.06
2023-06-10T04:47:59.519Z,101739.53
2023-06-10T04:50:26.131Z,101740.34
2023-06-10T04:52:52.620Z,101745.47
2023-06-10T04:55:19.184Z,101739.97
2023-06-10T04:57:45.829Z,101743.09
2023-06-10T05:00:12.842Z,101744.59
2023-06-10T05:02:39.351Z,101748.81
2023-06-10T05:05:06.084Z,101749.50
2023-06-10T05:07:32.708Z,101745.94
2023-06-10T05:09:59.200Z,101743.97
2023-06-10T05:12:25.765Z,101748.03
2023-06-10T05:14:52.213Z,101733.94
2023-06-10T05:17:18.858Z,101744.09
2023-06-10T05:19:45.595Z,101739.56
2023-06-10T05:22:12.285Z,101742.75
2023-06-10T05:24:39.132Z,101733.72
2023-06-10T05:27:10.018Z,101741.38
2023-06-10T05:29:36.522Z,101743.69
2023-06-10T05:32:04.530Z,101741.88
2023-06-10T05:34:32.068Z,101737.41
2023-06-10T05:36:59.084Z,101741.38
2023-06-10T05:39:25.514Z,101744.34
2023-06-10T05:41:52.392Z,101748.44
2023-06-10T05:44:18.822Z,101749.88
2023-06-10T05:46:45.386Z,101747.69
2023-06-10T05:49:11.894Z,101752.38
2023-06-10T05:51:39.246Z,101744.22
2023-06-10T05:54:05.936Z,101749.19
2023-06-10T05:56:32.401Z,101754.88
2023-06-10T05:59:01.656Z,101749.47
2023-06-10T06:01:28.186Z,101754.25
2023-06-10T06:03:54.725Z,101748.63
2023-06-10T06:06:24.800Z,101750.03
2023-06-10T06:08:51.286Z,101741.66
2023-06-10T06:11:17.839Z,101742.88
2023-06-10T06:13:44.310Z,101740.47
2023-06-10T06:16:10.983Z,101743.28
2023-06-10T06:18:37.492Z,101743.94
2023-06-10T06:21:06.865Z,101736.50
2023-06-10T06:23:33.553Z,101747.94
2023-06-10T06:25:59.996Z,101742.94
2023-06-10T06:28:30.311Z,101739.09
2023-06-10T06:30:58.232Z,101738.53
2023-06-10T06:33:27.343Z,101731.09
2023-06-10T06:35:53.806Z,101733.66
2023-06-10T06:38:20.330Z,101739.38
2023-06-10T06:40:46.943Z,101735.94
2023-06-10T06:43:13.392Z,101736.66
2023-06-10T06:45:39.812Z,101737.31
2023-06-10T06:48:06.944Z,101740.06
2023-06-10T06:50:33.715Z,101744.50
2023-06-10T06:53:00.366Z,101739.44
2023-06-10T06:55:26.779Z,101747.88
2023-06-10T06:57:56.215Z,101743.53
2023-06-10T07:00:22.948Z,101740.31
2023-06-10T07:02:49.661Z,101739.75
2023-06-10T07:05:16.266Z,101747.78
2023-06-10T07:07:42.733Z,101750.13
2023-06-10T07:10:09.644Z,101749.19
2023-06-10T07:12:36.183Z,101748.47
2023-06-10T07:15:02.776Z,101748.69
2023-06-10T07:17:29.282Z,101749.00
2023-06-10T07:19:58.498Z,101751.72
2023-06-10T07:22:25.177Z,101749.69
2023-06-10T07:24:53.000Z,101750.63
2023-06-10T07:27:19.658Z,101752.78
2023-06-10T07:29:46.351Z,101748.59
2023-06-10T07:32:12.987Z,101750.78
2023-06-10T07:34:39.570Z,101749.91
2023-06-10T07:37:06.578Z,101748.44
2023-06-10T07:39:33.069Z,101753.13
2023-06-10T07:41:59.662Z,101753.13
2023-06-10T07:44:26.233Z,101751.72
2023-06-10T07:46:52.907Z,101754.31
2023-06-10T07:49:19.528Z,101754.16
2023-06-10T07:51:46.274Z,101756.50
2023-06-10T07:54:13.398Z,101756.75
2023-06-10T07:56:40.691Z,101754.63
2023-06-10T07:59:07.212Z,101755.13
2023-06-10T08:01:34.180Z,101755.03
2023-06-10T08:04:00.977Z,101755.22
2023-06-10T08:06:27.729Z,101763.00
2023-06-10T08:08:54.509Z,101758.94
2023-06-10T08:11:21.741Z,101759.34
2023-06-10T08:13:48.475Z,101753.63
2023-06-10T08:16:14.967Z,101758.19
2023-06-10T08:18:41.741Z,101755.66
2023-06-10T08:21:08.261Z,101748.00
2023-06-10T08:23:34.931Z,101758.22
2023-06-10T08:26:01.392Z,101758.31
2023-06-10T08:28:27.931Z,101750.31
2023-06-10T08:30:57.403Z,101751.25
2023-06-10T08:33:24.176Z,101756.56
2023-06-10T08:35:50.650Z,101752.38
2023-06-10T08:38:17.302Z,101756.69
2023-06-10T08:40:44.215Z,101754.66
2023-06-10T08:43:45.188Z,101751.84
2023-06-10T08:46:13.264Z,101755.41
2023-06-10T08:48:43.933Z,101757.13
2023-06-10T08:51:13.245Z,101758.09
2023-06-10T08:53:50.918Z,101751.97
2023-06-10T08:56:18.695Z,101752.97
2023-06-10T08:58:46.852Z,101752.59
2023-06-10T09:01:14.536Z,101754.75
2023-06-10T09:03:42.750Z,101757.41
2023-06-10T09:06:10.083Z,101753.75
2023-06-10T09:08:36.881Z,101754.03
2023-06-10T09:11:03.473Z,101751.56
2023-06-10T09:13:30.570Z,101744.50
2023-06-10T09:16:01.366Z,101747.69
2023-06-10T09:18:32.111Z,101746.91
2023-06-10T09:20:59.730Z,101751.59
2023-06-10T09:23:27.058Z,101753.28
2023-06-10T09:25:58.948Z,101750.50
2023-06-10T09:28:26.153Z,101747.13
2023-06-10T09:31:04.204Z,101743.09
2023-06-10T09:33:30.794Z,101744.50
2023-06-10T09:36:02.114Z,101739.91
2023-06-10T09:38:36.264Z,101741.78
2023-06-10T09:41:04.285Z,101746.88
2023-06-10T09:43:46.178Z,101732.50
2023-06-10T09:46:21.350Z,101740.28
2023-06-10T09:48:48.857Z,101745.25
2023-06-10T09:51:18.169Z,101736.59
2023-06-10T09:53:50.077Z,101729.84
2023-06-10T09:56:16.880Z,101726.22
2023-06-10T09:58:44.618Z,101730.88
2023-06-10T10:01:13.435Z,101741.06
2023-06-10T10:03:47.577Z,101743.16
2023-06-10T10:06:15.837Z,101732.44
2023-06-10T10:08:42.545Z,101739.38
2023-06-10T10:11:09.954Z,101739.31
2023-06-10T10:13:38.172Z,101733.00
2023-06-10T10:16:13.302Z,101729.69
2023-06-10T10:18:46.837Z,101731.31
2023-06-10T10:21:14.692Z,101724.38
2023-06-10T10:24:01.362Z,101727.59
2023-06-10T10:26:28.412Z,101726.41
2023-06-10T10:29:15.606Z,101724.56
2023-06-10T10:31:45.409Z,101722.97
2023-06-10T10:34:18.129Z,101720.19
2023-06-10T10:36:46.376Z,101723.81
2023-06-10T10:39:13.314Z,101728.50
2023-06-10T10:41:40.725Z,101715.59
2023-06-10T10:44:09.135Z,101703.88
2023-06-10T10:46:55.274Z,101711.34
2023-06-10T10:49:23.927Z,101708.38
2023-06-10T10:52:02.443Z,101711.19
2023-06-10T10:54:33.801Z,101713.84
2023-06-10T10:57:23.318Z,101701.09
2023-06-10T10:59:49.841Z,101706.19
2023-06-10T11:02:19.022Z,101703.81
2023-06-10T11:04:49.841Z,101709.16
2023-06-10T11:07:22.750Z,101700.91
2023-06-10T11:10:08.171Z,101702.53
2023-06-10T11:12:46.697Z,101694.53
2023-06-10T11:15:21.472Z,101697.75
2023-06-10T11:18:13.030Z,101689.81
2023-06-10T11:20:53.806Z,101696.72
2023-06-10T11:23:29.604Z,101687.84
2023-06-10T11:26:23.002Z,101683.56
2023-06-10T11:28:55.530Z,101679.72
2023-06-10T11:31:22.878Z,101686.44
2023-06-10T11:33:54.149Z,101685.69
2023-06-10T11:36:20.859Z,101676.34
2023-06-10T11:38:47.617Z,101679.38
2023-06-10T11:41:15.480Z,101677.72
2023-06-10T11:43:46.841Z,101676.25
2023-06-10T11:46:15.045Z,101674.84
2023-06-10T11:48:55.698Z,101674.53
2023-06-10T11:51:22.692Z,101672.81
2023-06-10T11:53:50.402Z,101667.50
2023-06-10T11:56:24.290Z,101668.28
2023-06-10T11:58:59.045Z,101666.31
2023-06-10T12:01:33.280Z,101669.00
2023-06-10T12:04:00.889Z,101665.81
2023-06-10T12:06:27.671Z,101663.38
2023-06-10T12:08:55.413Z,101660.53
2023-06-10T12:11:22.597Z,101656.63
2023-06-10T12:13:50.830Z,101654.28
2023-06-10T12:16:18.144Z,101656.94
2023-06-10T12:18:46.442Z,101655.69
2023-06-10T12:21:21.207Z,101641.97
2023-06-10T12:24:08.992Z,101643.72
2023-06-10T12:26:37.273Z,101642.78
2023-06-10T12:29:25.371Z,101644.28
2023-06-10T12:32:08.729Z,101637.97
2023-06-10T12:34:40.384Z,101636.56
2023-06-10T12:37:14.568Z,101640.59
2023-06-10T12:39:42.793Z,101634.94
2023-06-10T12:42:13.604Z,101627.66
2023-06-10T12:44:42.016Z,101638.47
2023-06-10T12:47:13.389Z,101632.19
2023-06-10T12:49:40.218Z,101636.59
2023-06-10T12:52:08.293Z,101630.03
2023-06-10T12:54:35.635Z,101640.22
2023-06-10T12:57:02.384Z,101636.03
2023-06-10T12:59:34.986Z,101634.88
2023-06-10T13:02:01.441Z,101632.97
2023-06-10T13:04:28.041Z,101639.88
2023-06-10T13:06:54.693Z,101635.84
2023-06-10T13:09:21.177Z,101631.44
2023-06-10T13:11:47.839Z,101628.63
2023-06-10T13:14:14.415Z,101631.84
2023-06-10T13:16:41.118Z,101627.41
2023-06-10T13:19:07.770Z,101626.56
2023-06-10T13:21:35.305Z,101616.56
2023-06-10T13:24:02.133Z,101622.19
2023-06-10T13:26:28.662Z,101619.59
2023-06-10T13:28:55.310Z,101615.25
2023-06-10T13:31:24.870Z,101614.53
2023-06-10T13:33:51.449Z,101616.31
2023-06-10T13:36:17.943Z,101609.41
2023-06-10T13:38:44.494Z,101611.47
2023-06-10T13:41:11.249Z,101608.19
2023-06-10T13:43:37.733Z,101601.66
2023-06-10T13:46:04.395Z,101596.94
2023-06-10T13:48:30.861Z,101601.72
2023-06-10T13:50:58.048Z,101600.31
2023-06-10T13:53:24.586Z,101592.53
2023-06-10T13:55:51.106Z,101596.03
2023-06-10T13:58:17.608Z,101590.06
2023-06-10T14:00:44.236Z,101588.22
2023-06-10T14:03:10.989Z,101590.44
2023-06-10T14:05:37.612Z,101591.66
2023-06-10T14:08:04.414Z,101587.38
2023-06-10T14:10:31.029Z,101584.50
2023-06-10T14:12:57.586Z,101594.56
2023-06-10T14:15:24.295Z,101590.03
2023-06-10T14:17:50.903Z,101590.22
2023-06-10T14:20:17.420Z,101585.94
2023-06-10T14:22:44.029Z,101590.84
2023-06-10T14:25:12.577Z,101584.41
2023-06-10T14:27:39.307Z,101584.59
2023-06-10T14:30:06.662Z,101585.78
2023-06-10T14:32:33.333Z,101582.50
2023-06-10T14:34:59.965Z,101583.53
2023-06-10T14:37:26.447Z,101579.31
2023-06-10T14:39:52.894Z,101578.91
2023-06-10T14:42:19.339Z,101581.09
2023-06-10T14:44:45.782Z,101583.28
2023-06-10T14:47:12.303Z,101577.81
2023-06-10T14:49:38.788Z,101584.50
2023-06-10T14:52:05.517Z,101579.56
2023-06-10T14:54:32.030Z,101576.59
2023-06-10T14:56:58.509Z,101569.59
2023-06-10T14:59:25.087Z,101574.16
2023-06-10T15:01:51.664Z,101574.72
2023-06-10T15:04:20.310Z,101576.56
2023-06-10T15:06:50.187Z,101576.59
2023-06-10T15:09:17.141Z,101575.78
2023-06-10T15:11:43.687Z,101568.13
2023-06-10T15:14:10.148Z,101570.59
2023-06-10T15:16:36.660Z,101563.53
2023-06-10T15:19:03.116Z,101565.56
2023-06-10T15:21:29.634Z,101561.69
2023-06-10T15:23:56.248Z,101562.88
2023-06-10T15:26:22.806Z,101560.25
2023-06-10T15:28:49.231Z,101558.44
2023-06-10T15:31:16.235Z,101554.94
2023-06-10T15:33:45.161Z,101550.25
2023-06-10T15:36:14.547Z,101554.84
2023-06-10T15:38:41.274Z,101550.41
2023-06-10T15:41:07.830Z,101547.81
2023-06-10T15:43:34.275Z,101546.78
2023-06-10T15:46:00.716Z,101540.72
2023-06-10T15:48:27.179Z,101552.16
2023-06-10T15:50:53.746Z,101546.69
2023-06-10T15:53:20.151Z,101546.91
2023-06-10T15:55:46.869Z,101537.97
2023-06-10T15:58:13.496Z,101552.03
2023-06-10T16:00:39.896Z,101548.63
2023-06-10T16:03:06.655Z,101537.88
2023-06-10T16:05:33.127Z,101539.75
2023-06-10T16:08:03.441Z,101536.44
2023-06-10T16:10:30.225Z,101533.00
2023-06-10T16:12:56.801Z,101533.88
2023-06-10T16:15:23.227Z,101530.88
2023-06-10T16:17:49.696Z,101529.38
2023-06-10T16:20:16.411Z,101534.00
2023-06-10T16:22:42.893Z,101525.94
2023-06-10T16:25:09.755Z,101526.56
2023-06-10T16:27:36.838Z,101523.88
2023-06-10T16:30:04.997Z,101517.72
2023-06-10T16:32:31.692Z,101522.50
2023-06-10T16:34:58.382Z,101522.16
2023-06-10T16:37:24.961Z,101522.69
2023-06-10T16:39:52.062Z,101519.81
2023-06-10T16:42:18.617Z,101514.94
2023-06-10T16:44:45.068Z,101517.78
2023-06-10T16:47:11.910Z,101519.41
2023-06-10T16:49:39.049Z,101516.00
2023-06-10T16:52:06.586Z,101512.22
2023-06-10T16:54:33.059Z,101511.38
2023-06-10T16:56:59.500Z,101516.56
2023-06-10T16:59:25.936Z,101514.75
2023-06-10T17:01:52.475Z,101517.16
2023-06-10T17:04:19.003Z,101516.53
2023-06-10T17:06:45.472Z,101512.47
2023-06-10T17:09:12.120Z,101507.31
2023-06-10T17:11:38.737Z,101519.13
2023-06-10T17:14:05.726Z,101523.16
2023-06-10T17:16:32.293Z,101527.06
2023-06-10T17:18:58.686Z,101524.72
2023-06-10T17:21:25.338Z,101524.94
2023-06-10T17:23:52.525Z,101526.97
2023-06-10T17:26:19.098Z,101526.47
2023-06-10T17:28:45.580Z,101522.13
2023-06-10T17:31:12.312Z,101530.78
2023-06-10T17:33:38.703Z,101524.69
2023-06-10T17:36:05.899Z,101534.75
2023-06-10T17:38:32.400Z,101530.94
2023-06-10T17:40:59.030Z,101526.72
2023-06-10T17:43:25.832Z,101539.28
2023-06-10T17:45:52.790Z,101537.53
2023-06-10T17:48:19.469Z,101537.50
2023-06-10T17:50:46.189Z,101530.88
2023-06-10T17:53:12.619Z,101539.59
2023-06-10T17:55:39.539Z,101537.56
2023-06-10T17:58:05.965Z,101540.50
2023-06-10T18:00:34.289Z,101538.38
2023-06-10T18:03:04.116Z,101545.06
2023-06-10T18:05:30.831Z,101541.19
2023-06-10T18:07:57.416Z,101548.31
2023-06-10T18:10:24.098Z,101548.72
2023-06-10T18:12:50.603Z,101544.69
2023-06-10T18:15:17.013Z,101544.22
2023-06-10T18:17:43.541Z,101543.69
2023-06-10T18:20:12.918Z,101546.16
2023-06-10T18:22:39.510Z,101538.03
2023-06-10T18:25:06.298Z,101551.38
2023-06-10T18:27:36.061Z,101549.47
2023-06-10T18:30:03.675Z,101543.06
2023-06-10T18:32:30.131Z,101550.72
2023-06-10T18:34:56.611Z,101553.81
2023-06-10T18:37:23.124Z,101558.81
2023-06-10T18:39:50.342Z,101561.03
2023-06-10T18:42:17.246Z,101573.50
2023-06-10T18:44:43.700Z,101569.28
2023-06-10T18:47:10.985Z,101577.13
2023-06-10T18:49:37.555Z,101579.78
2023-06-10T18:52:04.963Z,101579.59
2023-06-10T18:54:31.461Z,101584.06
2023-06-10T18:56:59.166Z,101582.09
2023-06-10T18:59:25.656Z,101587.22
2023-06-10T19:01:52.136Z,101586.38
2023-06-10T19:04:18.733Z,101591.84
2023-06-10T19:06:45.498Z,101607.09
2023-06-10T19:09:12.122Z,101601.34
2023-06-10T19:11:39.615Z,101603.19
2023-06-10T19:14:07.987Z,101611.63
2023-06-10T19:16:35.146Z,101608.16
2023-06-10T19:19:01.641Z,101606.41
2023-06-10T19:21:28.139Z,101606.72
2023-06-10T19:23:57.550Z,101602.69
2023-06-10T19:26:24.018Z,101614.56
2023-06-10T19:28:50.625Z,101610.09
2023-06-10T19:31:17.373Z,101616.84
2023-06-10T19:33:44.221Z,101622.44
2023-06-10T19:36:10.892Z,101620.81
2023-06-10T19:38:38.177Z,101624.31
2023-06-10T19:41:06.157Z,101631.00
2023-06-10T19:43:32.931Z,101631.72
2023-06-10T19:45:59.666Z,101630.47
2023-06-10T19:48:26.752Z,101636.16
2023-06-10T19:50:53.697Z,101637.13
2023-06-10T19:53:20.160Z,101640.75
2023-06-10T19:55:46.932Z,101643.38
2023-06-10T19:58:13.599Z,101643.22
2023-06-10T20:00:40.588Z,101641.41
2023-06-10T20:03:07.189Z,101647.06
2023-06-10T20:05:34.368Z,101647.72
2023-06-10T20:08:01.126Z,101652.25
2023-06-10T20:10:27.752Z,101649.72
2023-06-10T20:12:54.596Z,101650.66
2023-06-10T20:15:21.131Z,101654.78
2023-06-10T20:17:48.585Z,101655.66
2023-06-10T20:20:16.283Z,101660.16
2023-06-10T20:22:42.762Z,101669.66
2023-06-10T20:25:11.207Z,101660.44
2023-06-10T20:27:39.191Z,101655.38
2023-06-10T20:30:06.335Z,101667.50
2023-06-10T20:32:32.903Z,101665.47
2023-06-10T20:34:59.487Z,101673.03
2023-06-10T20:37:26.206Z,101678.63
2023-06-10T20:39:52.688Z,101679.25
2023-06-10T20:42:19.287Z,101679.78
2023-06-10T20:44:45.811Z,101675.00
2023-06-10T20:47:12.400Z,101675.50
2023-06-10T20:49:39.772Z,101680.41
2023-06-10T20:52:06.597Z,101680.19
2023-06-10T20:54:33.034Z,101684.16
2023-06-10T20:56:59.521Z,101682.00
2023-06-10T20:59:26.062Z,101686.88
2023-06-10T21:01:52.779Z,101684.84
2023-06-10T21:04:19.452Z,101686.31
2023-06-10T21:06:46.376Z,101692.50
2023-06-10T21:09:13.001Z,101684.41
2023-06-10T21:11:39.525Z,101687.63
2023-06-10T21:14:08.536Z,101684.63
2023-06-10T21:16:36.091Z,101690.22
2023-06-10T21:19:03.383Z,101692.25
2023-06-10T21:21:30.015Z,101690.44
2023-06-10T21:23:56.788Z,101696.28
2023-06-10T21:26:23.385Z,101697.03
2023-06-10T21:28:49.847Z,101700.59
2023-06-10T21:31:16.717Z,101705.59
2023-06-10T21:33:43.197Z,101703.03
2023-06-10T21:36:09.622Z,101699.41
2023-06-10T21:38:36.141Z,101702.50
2023-06-10T21:41:02.928Z,101706.94
2023-06-10T21:43:29.368Z,101709.59
2023-06-10T21:45:57.591Z,101710.25
2023-06-10T21:48:24.257Z,101707.44
2023-06-10T21:50:50.969Z,101711.13
2023-06-10T21:53:17.442Z,101713.31
2023-06-10T21:55:43.894Z,101710.66
2023-06-10T21:58:10.358Z,101712.53
2023-06-10T22:00:37.441Z,101714.31
2023-06-10T22:03:04.113Z,101710.69
2023-06-10T22:05:30.829Z,101712.25
2023-06-10T22:07:57.346Z,101718.09
2023-06-10T22:10:23.933Z,101712.44
2023-06-10T22:12:50.810Z,101708.97
2023-06-10T22:15:17.431Z,101711.16
2023-06-10T22:17:44.106Z,101714.38
2023-06-10T22:22:40.139Z,101706.59
2023-06-10T22:25:07.603Z,101712.88
2023-06-10T22:27:34.170Z,101708.84
2023-06-10T22:30:01.827Z,101707.69
2023-06-10T22:32:28.348Z,101709.34
2023-06-10T22:34:54.959Z,101707.84
2023-06-10T22:37:22.023Z,101708.56
2023-06-10T22:39:48.586Z,101708.78
2023-06-10T22:42:15.189Z,101705.41
2023-06-10T22:44:41.600Z,101716.16
2023-06-10T22:47:08.557Z,101710.19
2023-06-10T22:49:35.052Z,101718.41
2023-06-10T22:52:01.800Z,101711.91
2023-06-10T22:54:28.330Z,101705.31
2023-06-10T22:56:55.044Z,101711.56
2023-06-10T22:59:21.760Z,101710.63
2023-06-10T23:01:48.444Z,101707.47
2023-06-10T23:04:15.135Z,101702.38
2023-06-10T23:06:41.679Z,101703.91
2023-06-10T23:09:09.581Z,101703.19
2023-06-10T23:11:36.225Z,101696.41
2023-06-10T23:14:02.806Z,101704.22
2023-06-10T23:16:29.371Z,101702.06
2023-06-10T23:18:55.954Z,101700.22
2023-06-10T23:21:22.546Z,101696.31
2023-06-10T23:23:52.578Z,101697.63
2023-06-10T23:26:19.281Z,101698.91
2023-06-10T23:28:45.797Z,101702.63
2023-06-10T23:31:12.483Z,101703.66
2023-06-10T23:33:40.016Z,101705.78
2023-06-10T23:36:06.857Z,101704.88
2023-06-10T23:38:33.286Z,101701.44
2023-06-10T23:40:59.805Z,101701.44
2023-06-10T23:43:26.190Z,101706.19
2023-06-10T23:45:52.633Z,101705.53
2023-06-10T23:48:19.314Z,101707.81
2023-06-10T23:50:46.069Z,101705.41
2023-06-10T23:53:13.174Z,101708.28
2023-06-10T23:55:39.768Z,101700.66
2023-06-10T23:58:06.523Z,101701.56
